sensor_id;sensor_type;location;lat;lon;timestamp;temperature;humidity
24176;DHT22;12324;48.146;11.502;2023-01-04T00:01:18;3.90;99.90
24176;DHT22;12324;48.146;11.502;2023-01-04T00:06:14;3.90;99.90
24176;DHT22;12324;48.146;11.502;2023-01-04T00:31:27;3.90;99.90
24176;DHT22;12324;48.146;11.502;2023-01-04T00:33:55;3.80;99.90
24176;DHT22;12324;48.146;11.502;2023-01-04T00:36:22;3.70;99.90
24176;DHT22;12324;48.146;11.502;2023-01-04T00:41:44;3.70;99.90
24176;DHT22;12324;48.146;11.502;2023-01-04T00:44:25;3.70;99.90
24176;DHT22;12324;48.146;11.502;2023-01-04T01:13:54;3.70;99.90
24176;DHT22;12324;48.146;11.502;2023-01-04T01:16:22;3.60;99.90
24176;DHT22;12324;48.146;11.502;2023-01-04T01:19:09;3.50;99.90
24176;DHT22;12324;48.146;11.502;2023-01-04T01:21:37;3.40;99.90
24176;DHT22;12324;48.146;11.502;2023-01-04T01:24:04;3.30;99.90
24176;DHT22;12324;48.146;11.502;2023-01-04T01:26:31;3.30;99.90
24176;DHT22;12324;48.146;11.502;2023-01-04T01:28:58;3.30;99.90
24176;DHT22;12324;48.146;11.502;2023-01-04T01:31:26;3.20;99.90
24176;DHT22;12324;48.146;11.502;2023-01-04T01:33:55;3.10;99.90
24176;DHT22;12324;48.146;11.502;2023-01-04T01:36:23;3.10;99.90
24176;DHT22;12324;48.146;11.502;2023-01-04T01:38:51;3.00;99.90
24176;DHT22;12324;48.146;11.502;2023-01-04T01:41:23;3.00;99.90
24176;DHT22;12324;48.146;11.502;2023-01-04T01:44:03;3.00;99.90
24176;DHT22;12324;48.146;11.502;2023-01-04T01:46:48;3.00;99.90
24176;DHT22;12324;48.146;11.502;2023-01-04T01:49:25;2.90;99.90
24176;DHT22;12324;48.146;11.502;2023-01-04T01:51:54;2.70;99.90
24176;DHT22;12324;48.146;11.502;2023-01-04T01:54:43;2.70;99.90
24176;DHT22;12324;48.146;11.502;2023-01-04T01:57:18;2.70;99.90
24176;DHT22;12324;48.146;11.502;2023-01-04T01:59:50;2.70;99.90
24176;DHT22;12324;48.146;11.502;2023-01-04T02:02:18;2.70;99.90
24176;DHT22;12324;48.146;11.502;2023-01-04T02:04:47;2.70;99.90
24176;DHT22;12324;48.146;11.502;2023-01-04T02:07:19;2.80;99.90
24176;DHT22;12324;48.146;11.502;2023-01-04T02:09:47;2.80;99.90
24176;DHT22;12324;48.146;11.502;2023-01-04T02:12:14;2.80;99.90
24176;DHT22;12324;48.146;11.502;2023-01-04T02:14:42;2.90;99.90
24176;DHT22;12324;48.146;11.502;2023-01-04T02:17:17;2.90;99.90
24176;DHT22;12324;48.146;11.502;2023-01-04T02:25:48;2.80;99.90
24176;DHT22;12324;48.146;11.502;2023-01-04T02:28:43;2.90;99.90
24176;DHT22;12324;48.146;11.502;2023-01-04T02:39:19;3.30;99.90
24176;DHT22;12324;48.146;11.502;2023-01-04T02:42:03;3.40;99.90
24176;DHT22;12324;48.146;11.502;2023-01-04T02:45:02;3.40;99.90
24176;DHT22;12324;48.146;11.502;2023-01-04T02:47:34;3.40;99.90
24176;DHT22;12324;48.146;11.502;2023-01-04T02:53:02;3.50;99.90
24176;DHT22;12324;48.146;11.502;2023-01-04T03:07:58;3.90;99.90
24176;DHT22;12324;48.146;11.502;2023-01-04T03:10:35;4.00;99.90
24176;DHT22;12324;48.146;11.502;2023-01-04T03:13:17;4.00;99.90
24176;DHT22;12324;48.146;11.502;2023-01-04T03:15:52;4.00;99.90
24176;DHT22;12324;48.146;11.502;2023-01-04T03:18:23;4.00;99.90
24176;DHT22;12324;48.146;11.502;2023-01-04T03:20:52;4.00;99.90
24176;DHT22;12324;48.146;11.502;2023-01-04T03:23:25;4.00;99.90
24176;DHT22;12324;48.146;11.502;2023-01-04T03:26:17;4.00;99.90
24176;DHT22;12324;48.146;11.502;2023-01-04T03:29:12;4.00;99.90
24176;DHT22;12324;48.146;11.502;2023-01-04T03:32:13;4.00;99.90
24176;DHT22;12324;48.146;11.502;2023-01-04T03:35:01;3.90;99.90
24176;DHT22;12324;48.146;11.502;2023-01-04T03:37:51;3.90;99.90
24176;DHT22;12324;48.146;11.502;2023-01-04T03:40:42;3.80;99.90
24176;DHT22;12324;48.146;11.502;2023-01-04T03:43:40;3.80;99.90
24176;DHT22;12324;48.146;11.502;2023-01-04T03:46:48;3.90;99.90
24176;DHT22;12324;48.146;11.502;2023-01-04T03:49:46;3.90;99.90
24176;DHT22;12324;48.146;11.502;2023-01-04T03:52:15;3.80;99.90
24176;DHT22;12324;48.146;11.502;2023-01-04T03:54:44;3.80;99.90
24176;DHT22;12324;48.146;11.502;2023-01-04T03:57:14;3.80;99.90
24176;DHT22;12324;48.146;11.502;2023-01-04T03:59:51;3.70;99.90
24176;DHT22;12324;48.146;11.502;2023-01-04T04:02:27;3.60;99.90
24176;DHT22;12324;48.146;11.502;2023-01-04T04:04:55;3.60;99.90
24176;DHT22;12324;48.146;11.502;2023-01-04T04:07:40;3.50;99.90
24176;DHT22;12324;48.146;11.502;2023-01-04T04:10:25;3.50;99.90
24176;DHT22;12324;48.146;11.502;2023-01-04T04:12:52;3.50;99.90
24176;DHT22;12324;48.146;11.502;2023-01-04T05:49:28;3.50;99.90
24176;DHT22;12324;48.146;11.502;2023-01-04T05:51:55;3.30;99.90
24176;DHT22;12324;48.146;11.502;2023-01-04T05:59:16;3.10;99.90
24176;DHT22;12324;48.146;11.502;2023-01-04T06:33:36;2.90;99.90
24176;DHT22;12324;48.146;11.502;2023-01-04T06:36:03;3.60;99.90
24176;DHT22;12324;48.146;11.502;2023-01-04T06:38:30;3.80;99.90
24176;DHT22;12324;48.146;11.502;2023-01-04T06:40:57;3.80;99.90
24176;DHT22;12324;48.146;11.502;2023-01-04T06:48:18;4.00;99.90
24176;DHT22;12324;48.146;11.502;2023-01-04T06:50:45;4.10;99.90
24176;DHT22;12324;48.146;11.502;2023-01-04T06:53:12;4.10;99.90
24176;DHT22;12324;48.146;11.502;2023-01-04T06:55:38;4.10;99.90
24176;DHT22;12324;48.146;11.502;2023-01-04T06:58:05;4.10;99.90
24176;DHT22;12324;48.146;11.502;2023-01-04T07:00:31;4.10;99.90
24176;DHT22;12324;48.146;11.502;2023-01-04T07:02:58;4.10;99.90
24176;DHT22;12324;48.146;11.502;2023-01-04T07:05:40;4.10;99.90
24176;DHT22;12324;48.146;11.502;2023-01-04T07:08:07;4.10;99.90
24176;DHT22;12324;48.146;11.502;2023-01-04T07:10:34;4.10;99.90
24176;DHT22;12324;48.146;11.502;2023-01-04T07:13:01;4.10;99.90
24176;DHT22;12324;48.146;11.502;2023-01-04T07:15:27;4.00;99.90
24176;DHT22;12324;48.146;11.502;2023-01-04T07:18:09;4.00;99.90
24176;DHT22;12324;48.146;11.502;2023-01-04T08:00:07;4.00;99.90
24176;DHT22;12324;48.146;11.502;2023-01-04T08:02:34;4.30;99.90
24176;DHT22;12324;48.146;11.502;2023-01-04T08:05:01;4.40;99.90
24176;DHT22;12324;48.146;11.502;2023-01-04T08:22:12;4.40;99.90
24176;DHT22;12324;48.146;11.502;2023-01-04T08:24:39;5.00;99.90
24176;DHT22;12324;48.146;11.502;2023-01-04T08:27:06;5.10;99.90
24176;DHT22;12324;48.146;11.502;2023-01-04T08:29:33;5.20;99.90
24176;DHT22;12324;48.146;11.502;2023-01-04T08:34:28;5.20;99.90
24176;DHT22;12324;48.146;11.502;2023-01-04T08:41:49;5.40;99.90
24176;DHT22;12324;48.146;11.502;2023-01-04T08:51:56;5.60;99.90
24176;DHT22;12324;48.146;11.502;2023-01-04T08:54:22;6.00;99.90
24176;DHT22;12324;48.146;11.502;2023-01-04T08:56:49;6.10;99.90
24176;DHT22;12324;48.146;11.502;2023-01-04T09:01:43;6.10;99.90
24176;DHT22;12324;48.146;11.502;2023-01-04T09:06:38;6.20;99.90
24176;DHT22;12324;48.146;11.502;2023-01-04T09:09:05;6.30;99.90
24176;DHT22;12324;48.146;11.502;2023-01-04T09:11:32;6.30;99.90
24176;DHT22;12324;48.146;11.502;2023-01-04T09:16:36;6.40;99.90
24176;DHT22;12324;48.146;11.502;2023-01-04T09:19:03;6.50;99.90
24176;DHT22;12324;48.146;11.502;2023-01-04T09:33:49;6.60;99.90
24176;DHT22;12324;48.146;11.502;2023-01-04T09:36:35;7.40;99.90
24176;DHT22;12324;48.146;11.502;2023-01-04T09:49:38;7.60;99.90
24176;DHT22;12324;48.146;11.502;2023-01-04T09:52:13;7.90;99.90
24176;DHT22;12324;48.146;11.502;2023-01-04T09:54:56;7.90;99.90
24176;DHT22;12324;48.146;11.502;2023-01-04T09:57:51;8.00;99.90
24176;DHT22;12324;48.146;11.502;2023-01-04T10:00:25;8.00;99.90
24176;DHT22;12324;48.146;11.502;2023-01-04T10:03:04;8.00;99.90
24176;DHT22;12324;48.146;11.502;2023-01-04T10:05:35;8.10;99.90
24176;DHT22;12324;48.146;11.502;2023-01-04T10:08:02;8.00;99.90
24176;DHT22;12324;48.146;11.502;2023-01-04T10:50:07;8.10;99.90
24176;DHT22;12324;48.146;11.502;2023-01-04T10:52:39;8.90;99.90
24176;DHT22;12324;48.146;11.502;2023-01-04T10:55:29;8.80;99.90
24176;DHT22;12324;48.146;11.502;2023-01-04T10:58:36;8.80;99.90
24176;DHT22;12324;48.146;11.502;2023-01-04T11:01:02;8.70;99.90
24176;DHT22;12324;48.146;11.502;2023-01-04T11:03:37;8.70;99.90
24176;DHT22;12324;48.146;11.502;2023-01-04T11:09:08;8.70;99.90
24176;DHT22;12324;48.146;11.502;2023-01-04T11:11:46;8.70;99.90
24176;DHT22;12324;48.146;11.502;2023-01-04T11:14:14;8.80;99.90
24176;DHT22;12324;48.146;11.502;2023-01-04T11:16:44;8.80;99.90
24176;DHT22;12324;48.146;11.502;2023-01-04T11:19:11;8.90;99.90
24176;DHT22;12324;48.146;11.502;2023-01-04T11:21:51;8.90;99.90
24176;DHT22;12324;48.146;11.502;2023-01-04T11:24:22;8.90;99.90
24176;DHT22;12324;48.146;11.502;2023-01-04T11:27:05;9.00;99.90
24176;DHT22;12324;48.146;11.502;2023-01-04T11:34:56;9.00;99.90
24176;DHT22;12324;48.146;11.502;2023-01-04T11:42:47;9.10;99.90
24176;DHT22;12324;48.146;11.502;2023-01-04T11:45:23;9.10;99.90
24176;DHT22;12324;48.146;11.502;2023-01-04T11:47:55;9.20;99.90
24176;DHT22;12324;48.146;11.502;2023-01-04T11:50:37;9.20;99.90
24176;DHT22;12324;48.146;11.502;2023-01-04T11:53:31;9.20;99.90
24176;DHT22;12324;48.146;11.502;2023-01-04T11:56:11;9.30;99.90
24176;DHT22;12324;48.146;11.502;2023-01-04T11:58:40;9.30;99.90
24176;DHT22;12324;48.146;11.502;2023-01-04T12:01:22;9.40;99.90
24176;DHT22;12324;48.146;11.502;2023-01-04T12:03:50;9.30;99.90
24176;DHT22;12324;48.146;11.502;2023-01-04T12:06:29;9.50;99.90
24176;DHT22;12324;48.146;11.502;2023-01-04T12:08:57;9.50;99.90
24176;DHT22;12324;48.146;11.502;2023-01-04T12:11:30;9.50;99.90
24176;DHT22;12324;48.146;11.502;2023-01-04T12:13:58;9.50;99.90
24176;DHT22;12324;48.146;11.502;2023-01-04T12:16:40;9.60;99.90
24176;DHT22;12324;48.146;11.502;2023-01-04T15:37:28;9.60;99.90
24176;DHT22;12324;48.146;11.502;2023-01-04T15:39:54;10.40;99.90
24176;DHT22;12324;48.146;11.502;2023-01-04T15:42:27;10.40;99.90
24176;DHT22;12324;48.146;11.502;2023-01-04T15:45:13;10.30;99.90
24176;DHT22;12324;48.146;11.502;2023-01-04T15:47:39;10.30;99.90
24176;DHT22;12324;48.146;11.502;2023-01-04T15:50:06;10.30;99.90
24176;DHT22;12324;48.146;11.502;2023-01-04T15:52:34;10.20;99.90
24176;DHT22;12324;48.146;11.502;2023-01-04T15:55:01;10.20;99.90
24176;DHT22;12324;48.146;11.502;2023-01-04T15:57:27;10.30;99.90
24176;DHT22;12324;48.146;11.502;2023-01-04T15:59:54;10.20;99.90
24176;DHT22;12324;48.146;11.502;2023-01-04T16:02:20;10.30;99.90
24176;DHT22;12324;48.146;11.502;2023-01-04T16:04:47;10.20;99.90
24176;DHT22;12324;48.146;11.502;2023-01-04T16:07:15;10.10;99.90
24176;DHT22;12324;48.146;11.502;2023-01-04T16:09:42;10.20;99.90
24176;DHT22;12324;48.146;11.502;2023-01-04T16:12:09;10.10;99.90
24176;DHT22;12324;48.146;11.502;2023-01-04T16:14:54;10.20;99.90
24176;DHT22;12324;48.146;11.502;2023-01-04T16:17:21;10.20;99.90
24176;DHT22;12324;48.146;11.502;2023-01-04T16:19:47;10.20;99.90
24176;DHT22;12324;48.146;11.502;2023-01-04T16:22:14;10.20;99.90
24176;DHT22;12324;48.146;11.502;2023-01-04T16:24:41;10.10;99.90
24176;DHT22;12324;48.146;11.502;2023-01-04T16:27:29;10.10;99.90
24176;DHT22;12324;48.146;11.502;2023-01-04T16:30:02;10.10;99.90
24176;DHT22;12324;48.146;11.502;2023-01-04T16:32:30;10.00;99.90
24176;DHT22;12324;48.146;11.502;2023-01-04T16:34:56;10.00;99.90
24176;DHT22;12324;48.146;11.502;2023-01-04T16:37:27;10.00;99.90
24176;DHT22;12324;48.146;11.502;2023-01-04T16:39:54;10.00;99.90
24176;DHT22;12324;48.146;11.502;2023-01-04T16:42:37;10.00;99.90
24176;DHT22;12324;48.146;11.502;2023-01-04T16:45:05;10.00;99.90
24176;DHT22;12324;48.146;11.502;2023-01-04T16:47:42;10.00;99.90
24176;DHT22;12324;48.146;11.502;2023-01-04T16:50:10;10.00;99.90
24176;DHT22;12324;48.146;11.502;2023-01-04T16:52:38;9.90;99.90
24176;DHT22;12324;48.146;11.502;2023-01-04T16:55:05;9.90;99.90
24176;DHT22;12324;48.146;11.502;2023-01-04T16:57:32;9.80;99.90
24176;DHT22;12324;48.146;11.502;2023-01-04T16:59:59;9.80;99.90
24176;DHT22;12324;48.146;11.502;2023-01-04T17:02:25;9.80;99.90
24176;DHT22;12324;48.146;11.502;2023-01-04T17:04:52;9.80;99.90
24176;DHT22;12324;48.146;11.502;2023-01-04T17:07:25;9.80;99.90
24176;DHT22;12324;48.146;11.502;2023-01-04T17:09:58;9.70;99.90
24176;DHT22;12324;48.146;11.502;2023-01-04T17:12:26;9.70;99.90
24176;DHT22;12324;48.146;11.502;2023-01-04T17:15:12;9.70;99.90
24176;DHT22;12324;48.146;11.502;2023-01-04T17:17:59;9.70;99.90
24176;DHT22;12324;48.146;11.502;2023-01-04T17:20:26;9.70;99.90
24176;DHT22;12324;48.146;11.502;2023-01-04T17:22:52;9.70;99.90
24176;DHT22;12324;48.146;11.502;2023-01-04T17:25:19;9.80;99.90
24176;DHT22;12324;48.146;11.502;2023-01-04T17:27:46;9.70;99.90
24176;DHT22;12324;48.146;11.502;2023-01-04T17:30:12;9.70;99.90
24176;DHT22;12324;48.146;11.502;2023-01-04T17:32:39;9.70;99.90
24176;DHT22;12324;48.146;11.502;2023-01-04T17:35:06;9.70;99.90
24176;DHT22;12324;48.146;11.502;2023-01-04T17:37:33;9.70;99.90
24176;DHT22;12324;48.146;11.502;2023-01-04T17:39:59;9.70;99.90
24176;DHT22;12324;48.146;11.502;2023-01-04T17:42:26;9.60;99.90
24176;DHT22;12324;48.146;11.502;2023-01-04T17:44:53;9.60;99.90
24176;DHT22;12324;48.146;11.502;2023-01-04T17:47:19;9.60;99.90
24176;DHT22;12324;48.146;11.502;2023-01-04T17:49:46;9.60;99.90
24176;DHT22;12324;48.146;11.502;2023-01-04T17:52:12;9.60;99.90
24176;DHT22;12324;48.146;11.502;2023-01-04T17:54:49;9.50;99.90
24176;DHT22;12324;48.146;11.502;2023-01-04T17:57:16;9.50;99.90
24176;DHT22;12324;48.146;11.502;2023-01-04T17:59:43;9.50;99.90
24176;DHT22;12324;48.146;11.502;2023-01-04T18:02:10;9.60;99.90
24176;DHT22;12324;48.146;11.502;2023-01-04T18:04:36;9.60;99.90
24176;DHT22;12324;48.146;11.502;2023-01-04T18:07:03;9.60;99.90
24176;DHT22;12324;48.146;11.502;2023-01-04T18:09:30;9.50;99.90
24176;DHT22;12324;48.146;11.502;2023-01-04T18:11:56;9.60;99.90
24176;DHT22;12324;48.146;11.502;2023-01-04T18:14:23;9.60;99.90
24176;DHT22;12324;48.146;11.502;2023-01-04T18:16:50;9.60;99.90
24176;DHT22;12324;48.146;11.502;2023-01-04T18:19:24;9.50;99.90
24176;DHT22;12324;48.146;11.502;2023-01-04T18:21:51;9.60;99.90
24176;DHT22;12324;48.146;11.502;2023-01-04T18:24:18;9.60;99.90
24176;DHT22;12324;48.146;11.502;2023-01-04T18:27:04;9.60;99.90
24176;DHT22;12324;48.146;11.502;2023-01-04T18:29:51;9.60;99.90
24176;DHT22;12324;48.146;11.502;2023-01-04T18:32:19;9.60;99.90
24176;DHT22;12324;48.146;11.502;2023-01-04T18:34:46;9.60;99.90
24176;DHT22;12324;48.146;11.502;2023-01-04T18:37:12;9.50;99.90
24176;DHT22;12324;48.146;11.502;2023-01-04T18:39:41;9.50;99.90
24176;DHT22;12324;48.146;11.502;2023-01-04T18:42:07;9.50;99.90
24176;DHT22;12324;48.146;11.502;2023-01-04T18:44:34;9.60;99.90
24176;DHT22;12324;48.146;11.502;2023-01-04T18:47:06;9.50;99.90
24176;DHT22;12324;48.146;11.502;2023-01-04T18:49:33;9.50;99.90
24176;DHT22;12324;48.146;11.502;2023-01-04T18:51:59;9.50;99.90
24176;DHT22;12324;48.146;11.502;2023-01-04T18:54:26;9.60;99.90
24176;DHT22;12324;48.146;11.502;2023-01-04T18:56:53;9.60;99.90
24176;DHT22;12324;48.146;11.502;2023-01-04T18:59:26;9.60;99.90
24176;DHT22;12324;48.146;11.502;2023-01-04T19:01:53;9.60;99.90
24176;DHT22;12324;48.146;11.502;2023-01-04T19:04:23;9.60;99.90
24176;DHT22;12324;48.146;11.502;2023-01-04T19:06:49;9.70;99.90
24176;DHT22;12324;48.146;11.502;2023-01-04T19:09:17;9.70;99.90
24176;DHT22;12324;48.146;11.502;2023-01-04T19:11:44;9.70;99.90
24176;DHT22;12324;48.146;11.502;2023-01-04T19:14:13;9.70;99.90
24176;DHT22;12324;48.146;11.502;2023-01-04T19:16:40;9.70;99.90
24176;DHT22;12324;48.146;11.502;2023-01-04T19:19:08;9.70;99.90
24176;DHT22;12324;48.146;11.502;2023-01-04T19:21:35;9.70;99.90
24176;DHT22;12324;48.146;11.502;2023-01-04T19:24:03;9.70;99.90
24176;DHT22;12324;48.146;11.502;2023-01-04T19:26:29;9.70;99.90
24176;DHT22;12324;48.146;11.502;2023-01-04T19:28:56;9.80;99.90
24176;DHT22;12324;48.146;11.502;2023-01-04T19:31:23;9.80;99.90
24176;DHT22;12324;48.146;11.502;2023-01-04T19:33:49;9.80;99.90
24176;DHT22;12324;48.146;11.502;2023-01-04T19:36:17;9.80;99.90
24176;DHT22;12324;48.146;11.502;2023-01-04T19:38:44;9.90;99.90
24176;DHT22;12324;48.146;11.502;2023-01-04T19:41:20;9.80;99.90
24176;DHT22;12324;48.146;11.502;2023-01-04T19:43:56;9.90;99.90
24176;DHT22;12324;48.146;11.502;2023-01-04T19:46:23;9.90;99.90
24176;DHT22;12324;48.146;11.502;2023-01-04T19:48:50;10.00;99.90
24176;DHT22;12324;48.146;11.502;2023-01-04T19:51:17;9.90;99.90
24176;DHT22;12324;48.146;11.502;2023-01-04T19:53:44;9.90;99.90
24176;DHT22;12324;48.146;11.502;2023-01-04T19:56:12;9.90;99.90
24176;DHT22;12324;48.146;11.502;2023-01-04T19:58:39;10.00;99.90
24176;DHT22;12324;48.146;11.502;2023-01-04T20:01:06;10.10;99.90
24176;DHT22;12324;48.146;11.502;2023-01-04T20:03:37;10.10;99.90
24176;DHT22;12324;48.146;11.502;2023-01-04T20:06:05;10.10;99.90
24176;DHT22;12324;48.146;11.502;2023-01-04T20:08:32;10.20;99.90
24176;DHT22;12324;48.146;11.502;2023-01-04T20:11:00;10.20;99.90
24176;DHT22;12324;48.146;11.502;2023-01-04T20:13:28;10.20;99.90
24176;DHT22;12324;48.146;11.502;2023-01-04T20:15:55;10.20;99.90
24176;DHT22;12324;48.146;11.502;2023-01-04T20:18:22;10.30;99.90
24176;DHT22;12324;48.146;11.502;2023-01-04T20:48:14;10.30;99.90
24176;DHT22;12324;48.146;11.502;2023-01-04T20:50:41;10.70;99.90
24176;DHT22;12324;48.146;11.502;2023-01-04T20:53:08;10.70;99.90
24176;DHT22;12324;48.146;11.502;2023-01-04T20:55:37;10.80;99.90
24176;DHT22;12324;48.146;11.502;2023-01-04T20:58:10;10.90;99.90
24176;DHT22;12324;48.146;11.502;2023-01-04T21:00:38;10.90;99.90
24176;DHT22;12324;48.146;11.502;2023-01-04T21:03:06;10.90;99.90
24176;DHT22;12324;48.146;11.502;2023-01-04T21:05:41;10.90;99.90
24176;DHT22;12324;48.146;11.502;2023-01-04T21:08:09;10.90;99.90
24176;DHT22;12324;48.146;11.502;2023-01-04T21:15:35;11.00;99.90
24176;DHT22;12324;48.146;11.502;2023-01-04T21:18:06;11.10;99.90
24176;DHT22;12324;48.146;11.502;2023-01-04T21:20:33;11.10;99.90
24176;DHT22;12324;48.146;11.502;2023-01-04T21:25:26;11.10;99.90
24176;DHT22;12324;48.146;11.502;2023-01-04T21:27:53;11.10;99.90
24176;DHT22;12324;48.146;11.502;2023-01-04T21:30:20;11.00;99.90
24176;DHT22;12324;48.146;11.502;2023-01-04T21:32:46;11.00;99.90
24176;DHT22;12324;48.146;11.502;2023-01-04T21:35:13;10.90;99.90
24176;DHT22;12324;48.146;11.502;2023-01-04T21:37:40;10.80;99.90
24176;DHT22;12324;48.146;11.502;2023-01-04T21:40:07;10.70;99.90
24176;DHT22;12324;48.146;11.502;2023-01-04T21:42:34;10.50;99.90
24176;DHT22;12324;48.146;11.502;2023-01-04T21:45:00;10.30;99.90
24176;DHT22;12324;48.146;11.502;2023-01-04T21:47:30;10.10;99.90
24176;DHT22;12324;48.146;11.502;2023-01-04T21:49:57;9.90;99.90
24176;DHT22;12324;48.146;11.502;2023-01-04T21:52:24;9.80;99.90
24176;DHT22;12324;48.146;11.502;2023-01-04T21:54:51;9.70;99.90
24176;DHT22;12324;48.146;11.502;2023-01-04T21:57:18;9.70;99.90
24176;DHT22;12324;48.146;11.502;2023-01-04T21:59:45;9.60;99.90
24176;DHT22;12324;48.146;11.502;2023-01-04T22:02:14;9.50;99.90
24176;DHT22;12324;48.146;11.502;2023-01-04T22:07:09;9.30;99.90
24176;DHT22;12324;48.146;11.502;2023-01-04T22:09:35;9.30;99.90
24176;DHT22;12324;48.146;11.502;2023-01-04T22:12:03;9.20;99.90
24176;DHT22;12324;48.146;11.502;2023-01-04T22:14:31;9.10;99.90
24176;DHT22;12324;48.146;11.502;2023-01-04T22:16:58;9.10;99.90
24176;DHT22;12324;48.146;11.502;2023-01-04T22:19:25;9.10;99.90
24176;DHT22;12324;48.146;11.502;2023-01-04T22:21:52;9.00;99.90
24176;DHT22;12324;48.146;11.502;2023-01-04T22:24:18;9.00;99.90
24176;DHT22;12324;48.146;11.502;2023-01-04T22:26:45;9.00;99.90
24176;DHT22;12324;48.146;11.502;2023-01-04T22:29:14;9.00;99.90
24176;DHT22;12324;48.146;11.502;2023-01-04T22:31:41;9.00;99.90
24176;DHT22;12324;48.146;11.502;2023-01-04T22:34:08;8.90;99.90
24176;DHT22;12324;48.146;11.502;2023-01-04T22:36:34;8.90;99.90
24176;DHT22;12324;48.146;11.502;2023-01-04T22:39:01;8.90;99.90
24176;DHT22;12324;48.146;11.502;2023-01-04T22:41:28;8.80;99.90
24176;DHT22;12324;48.146;11.502;2023-01-04T22:44:00;8.80;99.90
24176;DHT22;12324;48.146;11.502;2023-01-04T22:46:30;8.80;99.90
24176;DHT22;12324;48.146;11.502;2023-01-04T22:48:59;8.90;99.90
24176;DHT22;12324;48.146;11.502;2023-01-04T22:51:27;8.90;99.90
24176;DHT22;12324;48.146;11.502;2023-01-04T22:53:55;8.90;99.90
24176;DHT22;12324;48.146;11.502;2023-01-04T22:56:23;8.90;99.90
24176;DHT22;12324;48.146;11.502;2023-01-04T22:58:51;8.90;99.90
24176;DHT22;12324;48.146;11.502;2023-01-04T23:01:25;8.90;99.90
24176;DHT22;12324;48.146;11.502;2023-01-04T23:03:53;9.00;99.90
24176;DHT22;12324;48.146;11.502;2023-01-04T23:06:22;9.10;99.90
24176;DHT22;12324;48.146;11.502;2023-01-04T23:08:54;9.20;99.90
24176;DHT22;12324;48.146;11.502;2023-01-04T23:11:21;9.20;99.90
24176;DHT22;12324;48.146;11.502;2023-01-04T23:13:49;9.30;99.90
24176;DHT22;12324;48.146;11.502;2023-01-04T23:16:16;9.40;99.90
24176;DHT22;12324;48.146;11.502;2023-01-04T23:18:43;9.50;99.90
24176;DHT22;12324;48.146;11.502;2023-01-04T23:21:11;9.50;99.90
24176;DHT22;12324;48.146;11.502;2023-01-04T23:23:38;9.60;99.90
24176;DHT22;12324;48.146;11.502;2023-01-04T23:26:09;9.60;99.90
24176;DHT22;12324;48.146;11.502;2023-01-04T23:28:37;9.70;99.90
24176;DHT22;12324;48.146;11.502;2023-01-04T23:31:06;9.70;99.90
24176;DHT22;12324;48.146;11.502;2023-01-04T23:33:33;9.80;99.90
24176;DHT22;12324;48.146;11.502;2023-01-04T23:38:33;9.90;99.90
24176;DHT22;12324;48.146;11.502;2023-01-04T23:41:00;9.90;99.90
24176;DHT22;12324;48.146;11.502;2023-01-04T23:43:27;9.80;99.90
24176;DHT22;12324;48.146;11.502;2023-01-04T23:45:53;9.90;99.90
24176;DHT22;12324;48.146;11.502;2023-01-04T23:48:20;9.90;99.90
24176;DHT22;12324;48.146;11.502;2023-01-04T23:50:56;9.90;99.90
24176;DHT22;12324;48.146;11.502;2023-01-04T23:53:23;10.00;99.90
24176;DHT22;12324;48.146;11.502;2023-01-04T23:55:57;10.00;99.90
24176;DHT22;12324;48.146;11.502;2023-01-04T23:58:25;9.90;99.90
